• Join FlightAware (Why Join?)
  • Login
  • US Flag 
06:41AM EDT


 

Airport Tracker/Info


-or-


 

Live Flight TrackerFlight Track Log ✈ BER6299 ✈ 19-Apr-2013 ✈ EDDH / HAM - EDDM / MUC

Flight Track Log - Related Links

Times and Time Zones

All times are in EDT time to prevent confusion due to time zone crossing. See the BER6299 flight status page for this flight to view local times or setup timezone preferences in your user account.

Time Position Orientation Groundspeed Altitude Reporting Facility
EDT Latitude Longitude Course Direction KTS MPH feet Rate Location/Type
02:38AM 52.3866 10.4512 167° South  Level Estimated
02:39AM 52.2908 10.4857 168° South  Level Estimated
02:40AM 52.1950 10.5201 168° South  Level Estimated
02:41AM 52.0993 10.5543 168° South  Level Estimated
02:42AM 52.0035 10.5884 168° South  Level Estimated
02:43AM 51.9077 10.6224 168° South  Level Estimated
02:44AM 51.8119 10.6562 168° South  Level Estimated
02:45AM 51.7161 10.6898 168° South  Level Estimated
02:46AM 51.6203 10.7233 168° South  Level Estimated
02:47AM 51.5244 10.7567 168° South  Level Estimated
02:48AM 51.4286 10.7899 168° South  Level Estimated
02:49AM 51.3327 10.8230 168° South  Level Estimated
02:50AM 51.2369 10.8560 168° South  Level Estimated
02:51AM 51.1410 10.8888 168° South  Level Estimated
02:52AM 51.0451 10.9214 168° South  Level Estimated
02:53AM 50.9492 10.9540 168° South  Level Estimated
02:54AM 50.8534 10.9864 168° South  Level Estimated
02:55AM 50.7575 11.0187 168° South  Level Estimated
02:56AM 50.6615 11.0508 168° South  Level Estimated
02:57AM 50.5656 11.0828 168° South  Level Estimated
02:58AM 50.4697 11.1147 168° South  Level Estimated
02:59AM 50.3737 11.1465 168° South  Level Estimated
03:00AM 50.2778 11.1781 168° South  Level Estimated
03:01AM 50.1818 11.2096 168° South  Level Estimated
03:02AM 50.0859 11.2410 168° South  Level Estimated
03:03AM 49.9899 11.2722 168° South  Level Estimated
03:04AM 49.8939 11.3033 168° South  Level Estimated
03:05AM 49.7979 11.3343 168° South  Level Estimated
03:06AM 49.7019 11.3652 168° South  Level Estimated
03:07AM 49.6059 11.3960 168° South  Level Estimated
03:08AM 49.5099 11.4266 168° South  Level Estimated
03:09AM 49.4139 11.4571 168° South  Level Estimated
03:10AM 49.3179 11.4875 168° South  Level Estimated
03:11AM 49.2218 11.5178 168° South  Level Estimated
03:12AM 49.1258 11.5479 168° South  Level Estimated
03:13AM 49.0297 11.5780 168° South  Level Estimated
03:14AM 48.9337 11.6079 168° South  Level Estimated
03:15AM 48.8376 11.6377 168° South  Level Estimated
03:16AM 48.7415 11.6674 168° South  Level Estimated
03:17AM 48.6454 11.6970 169° South  Level Estimated
03:18AM 48.5493 11.7265 169° South  Level Estimated
03:19AM 48.4532 11.7558 169° South  Level Estimated
03:20AM 48.3571 11.7851 169° South  Level Estimated
03:21AM 48.3538 11.7861 169° South  Level Estimated
03:22AM 48.3538 11.7861 318° Northwest  Level Estimated
03:23AM 48.3538 11.7861 318° Northwest  Level Estimated
03:24AM 48.3538 11.7861 318° Northwest  Level Estimated
03:25AM 48.3538 11.7861 318° Northwest  Level Estimated
03:26AM 48.3538 11.7861 318° Northwest  Level Estimated
03:27AM 48.3538 11.7861 318° Northwest  Level Estimated
03:28AM 48.3538 11.7861 318° Northwest  Level Estimated
03:29AM 48.3538 11.7861 318° Northwest  Level Estimated
03:30AM 48.3538 11.7861 318° Northwest  Level Estimated
03:31AM 48.3538 11.7861 318° Northwest  Level Estimated
03:32AM 48.3538 11.7861 318° Northwest  Level Estimated
03:33AM 48.3538 11.7861 318° Northwest  Level Estimated
03:34AM 48.3538 11.7861 318° Northwest  Level Estimated
03:35AM 48.3538 11.7861 318° Northwest  Level Estimated
03:36AM 48.3538 11.7861 318° Northwest  Level Estimated